sensor_id;sensor_type;location;lat;lon;timestamp;temperature;humidity
56123;DHT22;42426;46.104;19.656;2023-06-14T00:02:04;435.30;2227.20
56123;DHT22;42426;46.104;19.656;2023-06-14T00:04:30;435.30;2227.20
56123;DHT22;42426;46.104;19.656;2023-06-14T00:06:56;435.20;2227.20
56123;DHT22;42426;46.104;19.656;2023-06-14T00:11:49;410.30;2304.00
56123;DHT22;42426;46.104;19.656;2023-06-14T00:14:16;410.20;2278.40
56123;DHT22;42426;46.104;19.656;2023-06-14T00:16:41;410.00;2304.00
56123;DHT22;42426;46.104;19.656;2023-06-14T00:19:08;410.10;2329.60
56123;DHT22;42426;46.104;19.656;2023-06-14T00:21:37;410.10;2304.00
56123;DHT22;42426;46.104;19.656;2023-06-14T00:24:03;410.20;2304.00
56123;DHT22;42426;46.104;19.656;2023-06-14T00:26:29;410.20;2304.00
56123;DHT22;42426;46.104;19.656;2023-06-14T00:28:55;410.30;2304.00
56123;DHT22;42426;46.104;19.656;2023-06-14T00:31:22;410.20;2304.00
56123;DHT22;42426;46.104;19.656;2023-06-14T00:33:48;410.30;2304.00
56123;DHT22;42426;46.104;19.656;2023-06-14T00:36:14;410.30;2304.00
56123;DHT22;42426;46.104;19.656;2023-06-14T00:38:40;410.30;2304.00
56123;DHT22;42426;46.104;19.656;2023-06-14T00:41:06;410.30;2304.00
56123;DHT22;42426;46.104;19.656;2023-06-14T00:43:33;410.30;2304.00
56123;DHT22;42426;46.104;19.656;2023-06-14T00:46:00;410.30;2304.00
56123;DHT22;42426;46.104;19.656;2023-06-14T00:48:27;410.30;2304.00
56123;DHT22;42426;46.104;19.656;2023-06-14T00:50:53;410.30;2304.00
56123;DHT22;42426;46.104;19.656;2023-06-14T00:53:20;410.30;2304.00
56123;DHT22;42426;46.104;19.656;2023-06-14T00:55:48;410.30;2304.00
56123;DHT22;42426;46.104;19.656;2023-06-14T00:58:14;410.30;2304.00
56123;DHT22;42426;46.104;19.656;2023-06-14T01:00:41;410.30;2304.00
56123;DHT22;42426;46.104;19.656;2023-06-14T01:03:07;410.30;2304.00
56123;DHT22;42426;46.104;19.656;2023-06-14T01:05:44;410.30;2329.60
56123;DHT22;42426;46.104;19.656;2023-06-14T01:08:31;410.20;2304.00
56123;DHT22;42426;46.104;19.656;2023-06-14T01:11:10;410.20;2329.60
56123;DHT22;42426;46.104;19.656;2023-06-14T01:13:40;410.30;2329.60
56123;DHT22;42426;46.104;19.656;2023-06-14T01:16:08;410.30;2304.00
56123;DHT22;42426;46.104;19.656;2023-06-14T01:18:34;410.20;2304.00
56123;DHT22;42426;46.104;19.656;2023-06-14T01:21:01;410.20;2304.00
56123;DHT22;42426;46.104;19.656;2023-06-14T01:23:31;410.20;2304.00
56123;DHT22;42426;46.104;19.656;2023-06-14T01:25:59;410.20;2304.00
56123;DHT22;42426;46.104;19.656;2023-06-14T01:28:26;410.20;2329.60
56123;DHT22;42426;46.104;19.656;2023-06-14T01:31:00;410.20;2304.00
56123;DHT22;42426;46.104;19.656;2023-06-14T01:33:30;410.10;2304.00
56123;DHT22;42426;46.104;19.656;2023-06-14T01:35:56;410.10;2329.60
56123;DHT22;42426;46.104;19.656;2023-06-14T01:38:25;410.10;2329.60
56123;DHT22;42426;46.104;19.656;2023-06-14T01:40:54;410.10;2329.60
56123;DHT22;42426;46.104;19.656;2023-06-14T01:43:21;410.10;2329.60
56123;DHT22;42426;46.104;19.656;2023-06-14T01:45:48;410.00;2329.60
56123;DHT22;42426;46.104;19.656;2023-06-14T01:48:17;410.00;2329.60
56123;DHT22;42426;46.104;19.656;2023-06-14T01:50:43;410.00;2329.60
56123;DHT22;42426;46.104;19.656;2023-06-14T01:53:10;410.00;2329.60
56123;DHT22;42426;46.104;19.656;2023-06-14T01:55:38;410.00;2329.60
56123;DHT22;42426;46.104;19.656;2023-06-14T01:58:04;410.00;2329.60
56123;DHT22;42426;46.104;19.656;2023-06-14T02:00:31;410.00;2329.60
56123;DHT22;42426;46.104;19.656;2023-06-14T02:02:57;410.00;2329.60
56123;DHT22;42426;46.104;19.656;2023-06-14T02:05:24;410.00;2355.20
56123;DHT22;42426;46.104;19.656;2023-06-14T02:07:50;410.00;2355.20
56123;DHT22;42426;46.104;19.656;2023-06-14T02:10:16;409.90;2355.20
56123;DHT22;42426;46.104;19.656;2023-06-14T02:12:43;409.90;2355.20
56123;DHT22;42426;46.104;19.656;2023-06-14T02:15:09;409.90;2355.20
56123;DHT22;42426;46.104;19.656;2023-06-14T02:17:45;409.80;2355.20
56123;DHT22;42426;46.104;19.656;2023-06-14T02:20:20;409.70;2355.20
56123;DHT22;42426;46.104;19.656;2023-06-14T02:22:46;409.70;2355.20
56123;DHT22;42426;46.104;19.656;2023-06-14T02:25:12;409.80;2355.20
56123;DHT22;42426;46.104;19.656;2023-06-14T02:27:37;409.70;2355.20
56123;DHT22;42426;46.104;19.656;2023-06-14T02:30:04;409.70;2355.20
56123;DHT22;42426;46.104;19.656;2023-06-14T02:32:30;409.70;2355.20
56123;DHT22;42426;46.104;19.656;2023-06-14T02:34:57;409.70;2355.20
56123;DHT22;42426;46.104;19.656;2023-06-14T02:37:23;409.70;2355.20
56123;DHT22;42426;46.104;19.656;2023-06-14T02:39:48;409.70;2355.20
56123;DHT22;42426;46.104;19.656;2023-06-14T02:42:14;409.70;2355.20
56123;DHT22;42426;46.104;19.656;2023-06-14T02:44:40;409.70;2355.20
56123;DHT22;42426;46.104;19.656;2023-06-14T02:47:06;409.70;2355.20
56123;DHT22;42426;46.104;19.656;2023-06-14T02:49:31;409.60;2355.20
56123;DHT22;42426;46.104;19.656;2023-06-14T02:51:57;409.60;2355.20
56123;DHT22;42426;46.104;19.656;2023-06-14T02:54:23;409.60;2355.20
56123;DHT22;42426;46.104;19.656;2023-06-14T02:56:49;409.60;2355.20
56123;DHT22;42426;46.104;19.656;2023-06-14T02:59:15;409.60;2355.20
56123;DHT22;42426;46.104;19.656;2023-06-14T03:01:42;409.60;2355.20
56123;DHT22;42426;46.104;19.656;2023-06-14T03:04:08;384.90;2329.60
56123;DHT22;42426;46.104;19.656;2023-06-14T03:06:34;384.90;2329.60
56123;DHT22;42426;46.104;19.656;2023-06-14T03:09:01;384.90;2329.60
56123;DHT22;42426;46.104;19.656;2023-06-14T03:11:30;384.90;2329.60
56123;DHT22;42426;46.104;19.656;2023-06-14T03:13:56;384.90;2329.60
56123;DHT22;42426;46.104;19.656;2023-06-14T03:16:22;384.90;2329.60
56123;DHT22;42426;46.104;19.656;2023-06-14T03:18:51;384.90;2329.60
56123;DHT22;42426;46.104;19.656;2023-06-14T03:21:17;384.90;2329.60
56123;DHT22;42426;46.104;19.656;2023-06-14T03:23:43;384.90;2329.60
56123;DHT22;42426;46.104;19.656;2023-06-14T03:26:11;384.90;2329.60
56123;DHT22;42426;46.104;19.656;2023-06-14T03:28:47;384.90;2329.60
56123;DHT22;42426;46.104;19.656;2023-06-14T03:31:13;384.90;2329.60
56123;DHT22;42426;46.104;19.656;2023-06-14T03:33:40;384.90;2329.60
56123;DHT22;42426;46.104;19.656;2023-06-14T03:36:06;384.90;2329.60
56123;DHT22;42426;46.104;19.656;2023-06-14T03:38:35;384.90;2329.60
56123;DHT22;42426;46.104;19.656;2023-06-14T03:41:01;384.90;2329.60
56123;DHT22;42426;46.104;19.656;2023-06-14T03:43:27;384.90;2329.60
56123;DHT22;42426;46.104;19.656;2023-06-14T03:45:53;409.60;2355.20
56123;DHT22;42426;46.104;19.656;2023-06-14T03:48:19;409.60;2355.20
56123;DHT22;42426;46.104;19.656;2023-06-14T03:50:45;409.60;2355.20
56123;DHT22;42426;46.104;19.656;2023-06-14T03:53:11;409.60;2355.20
56123;DHT22;42426;46.104;19.656;2023-06-14T03:55:37;409.60;2355.20
56123;DHT22;42426;46.104;19.656;2023-06-14T03:58:03;409.60;2355.20
56123;DHT22;42426;46.104;19.656;2023-06-14T04:00:29;409.60;2355.20
56123;DHT22;42426;46.104;19.656;2023-06-14T04:02:55;409.60;2355.20
56123;DHT22;42426;46.104;19.656;2023-06-14T04:05:21;409.70;2355.20
56123;DHT22;42426;46.104;19.656;2023-06-14T04:07:47;409.70;2355.20
56123;DHT22;42426;46.104;19.656;2023-06-14T04:10:15;409.70;2355.20
56123;DHT22;42426;46.104;19.656;2023-06-14T04:12:41;409.70;2355.20
56123;DHT22;42426;46.104;19.656;2023-06-14T04:15:07;409.70;2355.20
56123;DHT22;42426;46.104;19.656;2023-06-14T04:17:38;409.80;2355.20
56123;DHT22;42426;46.104;19.656;2023-06-14T04:20:04;409.80;2355.20
56123;DHT22;42426;46.104;19.656;2023-06-14T04:22:31;409.80;2355.20
56123;DHT22;42426;46.104;19.656;2023-06-14T04:24:59;409.90;2355.20
56123;DHT22;42426;46.104;19.656;2023-06-14T04:27:28;409.90;2355.20
56123;DHT22;42426;46.104;19.656;2023-06-14T04:29:56;409.90;2355.20
56123;DHT22;42426;46.104;19.656;2023-06-14T04:32:31;409.90;2355.20
56123;DHT22;42426;46.104;19.656;2023-06-14T04:34:59;410.00;2355.20
56123;DHT22;42426;46.104;19.656;2023-06-14T04:37:28;410.00;2355.20
56123;DHT22;42426;46.104;19.656;2023-06-14T04:39:55;410.10;2355.20
56123;DHT22;42426;46.104;19.656;2023-06-14T04:42:23;410.10;2355.20
56123;DHT22;42426;46.104;19.656;2023-06-14T04:44:51;410.10;2355.20
56123;DHT22;42426;46.104;19.656;2023-06-14T04:47:20;410.10;2355.20
56123;DHT22;42426;46.104;19.656;2023-06-14T04:49:46;410.20;2355.20
56123;DHT22;42426;46.104;19.656;2023-06-14T04:52:13;410.30;2355.20
56123;DHT22;42426;46.104;19.656;2023-06-14T04:54:40;410.30;2355.20
56123;DHT22;42426;46.104;19.656;2023-06-14T04:57:09;410.40;2355.20
56123;DHT22;42426;46.104;19.656;2023-06-14T04:59:40;410.40;2355.20
56123;DHT22;42426;46.104;19.656;2023-06-14T05:02:06;410.50;2355.20
56123;DHT22;42426;46.104;19.656;2023-06-14T05:04:32;435.20;2355.20
56123;DHT22;42426;46.104;19.656;2023-06-14T05:06:58;435.20;2355.20
56123;DHT22;42426;46.104;19.656;2023-06-14T05:09:25;435.30;2355.20
56123;DHT22;42426;46.104;19.656;2023-06-14T05:11:51;435.30;2355.20
56123;DHT22;42426;46.104;19.656;2023-06-14T05:14:16;435.40;2355.20
56123;DHT22;42426;46.104;19.656;2023-06-14T05:16:43;435.40;2355.20
56123;DHT22;42426;46.104;19.656;2023-06-14T05:19:09;435.50;2355.20
56123;DHT22;42426;46.104;19.656;2023-06-14T05:21:37;435.60;2355.20
56123;DHT22;42426;46.104;19.656;2023-06-14T05:24:03;435.60;2355.20
56123;DHT22;42426;46.104;19.656;2023-06-14T05:29:52;435.70;2355.20
56123;DHT22;42426;46.104;19.656;2023-06-14T05:35:42;435.90;2355.20
56123;DHT22;42426;46.104;19.656;2023-06-14T05:41:30;436.00;2355.20
56123;DHT22;42426;46.104;19.656;2023-06-14T05:47:17;436.10;2355.20
56123;DHT22;42426;46.104;19.656;2023-06-14T05:53:05;460.90;2380.80
56123;DHT22;42426;46.104;19.656;2023-06-14T05:58:53;461.10;2380.80
56123;DHT22;42426;46.104;19.656;2023-06-14T06:04:40;461.10;2329.60
56123;DHT22;42426;46.104;19.656;2023-06-14T06:10:27;461.20;2329.60
56123;DHT22;42426;46.104;19.656;2023-06-14T06:16:15;461.50;2329.60
56123;DHT22;42426;46.104;19.656;2023-06-14T06:22:03;461.60;2278.40
56123;DHT22;42426;46.104;19.656;2023-06-14T06:27:54;461.70;2278.40
56123;DHT22;42426;46.104;19.656;2023-06-14T06:33:41;486.40;2252.80
56123;DHT22;42426;46.104;19.656;2023-06-14T06:39:29;486.70;2252.80
56123;DHT22;42426;46.104;19.656;2023-06-14T06:45:16;486.60;2227.20
56123;DHT22;42426;46.104;19.656;2023-06-14T06:51:04;486.90;2201.60
56123;DHT22;42426;46.104;19.656;2023-06-14T06:56:52;487.10;2176.00
56123;DHT22;42426;46.104;19.656;2023-06-14T07:02:40;512.00;2150.40
56123;DHT22;42426;46.104;19.656;2023-06-14T07:05:06;512.10;2176.00
56123;DHT22;42426;46.104;19.656;2023-06-14T07:07:32;512.10;2150.40
56123;DHT22;42426;46.104;19.656;2023-06-14T07:09:58;512.20;2124.80
56123;DHT22;42426;46.104;19.656;2023-06-14T07:12:25;512.30;2099.20
56123;DHT22;42426;46.104;19.656;2023-06-14T07:14:51;512.30;2099.20
56123;DHT22;42426;46.104;19.656;2023-06-14T07:17:17;512.40;2099.20
56123;DHT22;42426;46.104;19.656;2023-06-14T07:19:43;512.50;2099.20
56123;DHT22;42426;46.104;19.656;2023-06-14T07:22:09;512.70;2124.80
56123;DHT22;42426;46.104;19.656;2023-06-14T07:24:34;512.80;2099.20
56123;DHT22;42426;46.104;19.656;2023-06-14T07:27:02;512.80;2048.00
56123;DHT22;42426;46.104;19.656;2023-06-14T07:29:29;512.90;2022.40
56123;DHT22;42426;46.104;19.656;2023-06-14T07:31:55;512.90;1971.20
56123;DHT22;42426;46.104;19.656;2023-06-14T07:34:21;537.60;1971.20
56123;DHT22;42426;46.104;19.656;2023-06-14T07:36:46;537.70;1945.60
56123;DHT22;42426;46.104;19.656;2023-06-14T07:39:13;537.80;1945.60
56123;DHT22;42426;46.104;19.656;2023-06-14T07:41:39;537.90;1920.00
56123;DHT22;42426;46.104;19.656;2023-06-14T07:44:05;537.90;1817.60
56123;DHT22;42426;46.104;19.656;2023-06-14T07:46:30;538.00;1868.80
56123;DHT22;42426;46.104;19.656;2023-06-14T07:48:56;538.00;1868.80
56123;DHT22;42426;46.104;19.656;2023-06-14T07:51:24;538.10;1766.40
56123;DHT22;42426;46.104;19.656;2023-06-14T07:53:50;538.20;1664.00
56123;DHT22;42426;46.104;19.656;2023-06-14T07:56:16;538.30;1740.80
56123;DHT22;42426;46.104;19.656;2023-06-14T07:58:41;538.40;1740.80
56123;DHT22;42426;46.104;19.656;2023-06-14T08:01:08;538.50;1868.80
56123;DHT22;42426;46.104;19.656;2023-06-14T08:03:34;563.20;1894.40
56123;DHT22;42426;46.104;19.656;2023-06-14T08:06:00;563.20;1920.00
56123;DHT22;42426;46.104;19.656;2023-06-14T09:21:08;564.00;1638.40
56123;DHT22;42426;46.104;19.656;2023-06-14T09:23:46;564.00;1740.80
56123;DHT22;42426;46.104;19.656;2023-06-14T09:26:14;564.00;1792.00
56123;DHT22;42426;46.104;19.656;2023-06-14T09:28:47;564.00;1408.00
56123;DHT22;42426;46.104;19.656;2023-06-14T09:31:17;564.00;1484.80
56123;DHT22;42426;46.104;19.656;2023-06-14T09:33:51;564.10;1561.60
56123;DHT22;42426;46.104;19.656;2023-06-14T09:36:26;564.10;1638.40
56123;DHT22;42426;46.104;19.656;2023-06-14T09:38:58;564.10;1433.60
56123;DHT22;42426;46.104;19.656;2023-06-14T09:41:42;588.80;1561.60
56123;DHT22;42426;46.104;19.656;2023-06-14T09:44:09;588.90;1510.40
56123;DHT22;42426;46.104;19.656;2023-06-14T09:46:37;589.00;1587.20
56123;DHT22;42426;46.104;19.656;2023-06-14T09:49:04;589.10;1536.00
56123;DHT22;42426;46.104;19.656;2023-06-14T09:51:30;589.10;1484.80
56123;DHT22;42426;46.104;19.656;2023-06-14T09:54:00;589.10;1484.80
56123;DHT22;42426;46.104;19.656;2023-06-14T09:56:28;589.10;1459.20
56123;DHT22;42426;46.104;19.656;2023-06-14T09:58:59;589.10;1612.80
56123;DHT22;42426;46.104;19.656;2023-06-14T10:01:26;589.20;1536.00
56123;DHT22;42426;46.104;19.656;2023-06-14T10:04:13;589.30;1715.20
56123;DHT22;42426;46.104;19.656;2023-06-14T10:06:41;589.30;1561.60
56123;DHT22;42426;46.104;19.656;2023-06-14T10:09:09;589.40;1484.80
56123;DHT22;42426;46.104;19.656;2023-06-14T10:11:36;589.40;1536.00
56123;DHT22;42426;46.104;19.656;2023-06-14T10:14:04;589.50;1587.20
56123;DHT22;42426;46.104;19.656;2023-06-14T10:22:06;589.60;1561.60
56123;DHT22;42426;46.104;19.656;2023-06-14T10:24:40;589.60;1561.60
56123;DHT22;42426;46.104;19.656;2023-06-14T10:27:08;589.70;1536.00
56123;DHT22;42426;46.104;19.656;2023-06-14T10:32:25;614.40;1536.00
56123;DHT22;42426;46.104;19.656;2023-06-14T10:34:58;589.70;1561.60
56123;DHT22;42426;46.104;19.656;2023-06-14T10:37:25;589.70;1536.00
56123;DHT22;42426;46.104;19.656;2023-06-14T10:39:51;614.40;1382.40
56123;DHT22;42426;46.104;19.656;2023-06-14T10:42:17;614.50;1536.00
56123;DHT22;42426;46.104;19.656;2023-06-14T10:44:49;614.50;1612.80
56123;DHT22;42426;46.104;19.656;2023-06-14T10:49:55;614.70;1408.00
56123;DHT22;42426;46.104;19.656;2023-06-14T10:52:26;614.80;1382.40
56123;DHT22;42426;46.104;19.656;2023-06-14T10:57:25;615.00;1305.60
56123;DHT22;42426;46.104;19.656;2023-06-14T10:59:51;614.90;1536.00
56123;DHT22;42426;46.104;19.656;2023-06-14T11:02:45;615.00;1433.60
56123;DHT22;42426;46.104;19.656;2023-06-14T11:05:14;615.10;1331.20
56123;DHT22;42426;46.104;19.656;2023-06-14T11:07:55;615.20;1331.20
56123;DHT22;42426;46.104;19.656;2023-06-14T11:10:40;615.30;1280.00
56123;DHT22;42426;46.104;19.656;2023-06-14T11:13:07;640.30;1280.00
56123;DHT22;42426;46.104;19.656;2023-06-14T11:15:35;640.20;1280.00
56123;DHT22;42426;46.104;19.656;2023-06-14T11:18:05;640.30;1356.80
56123;DHT22;42426;46.104;19.656;2023-06-14T11:20:33;640.30;1356.80
56123;DHT22;42426;46.104;19.656;2023-06-14T11:23:00;640.10;1382.40
56123;DHT22;42426;46.104;19.656;2023-06-14T11:25:27;640.30;1305.60
56123;DHT22;42426;46.104;19.656;2023-06-14T11:27:57;640.30;1382.40
56123;DHT22;42426;46.104;19.656;2023-06-14T11:30:23;640.30;1408.00
56123;DHT22;42426;46.104;19.656;2023-06-14T11:32:51;640.20;1484.80
56123;DHT22;42426;46.104;19.656;2023-06-14T11:35:18;640.30;1510.40
56123;DHT22;42426;46.104;19.656;2023-06-14T11:37:45;640.30;1408.00
56123;DHT22;42426;46.104;19.656;2023-06-14T11:40:11;640.60;1228.80
56123;DHT22;42426;46.104;19.656;2023-06-14T11:42:41;640.50;1254.40
56123;DHT22;42426;46.104;19.656;2023-06-14T11:45:08;640.50;1331.20
56123;DHT22;42426;46.104;19.656;2023-06-14T11:47:39;640.70;1382.40
56123;DHT22;42426;46.104;19.656;2023-06-14T11:57:35;665.60;1356.80
56123;DHT22;42426;46.104;19.656;2023-06-14T12:00:06;640.80;1228.80
56123;DHT22;42426;46.104;19.656;2023-06-14T12:02:40;640.80;1254.40
56123;DHT22;42426;46.104;19.656;2023-06-14T12:05:07;640.80;1228.80
56123;DHT22;42426;46.104;19.656;2023-06-14T12:07:36;640.80;1228.80
56123;DHT22;42426;46.104;19.656;2023-06-14T12:12:36;665.60;1331.20
56123;DHT22;42426;46.104;19.656;2023-06-14T12:15:06;665.60;1331.20
56123;DHT22;42426;46.104;19.656;2023-06-14T12:17:34;665.60;1382.40
56123;DHT22;42426;46.104;19.656;2023-06-14T12:20:06;665.70;1356.80
56123;DHT22;42426;46.104;19.656;2023-06-14T13:00:54;666.40;1305.60
56123;DHT22;42426;46.104;19.656;2023-06-14T13:03:20;666.20;1254.40
56123;DHT22;42426;46.104;19.656;2023-06-14T13:05:46;666.10;1331.20
56123;DHT22;42426;46.104;19.656;2023-06-14T13:08:11;666.10;1382.40
56123;DHT22;42426;46.104;19.656;2023-06-14T13:10:37;666.10;1331.20
56123;DHT22;42426;46.104;19.656;2023-06-14T13:13:03;666.00;1356.80
56123;DHT22;42426;46.104;19.656;2023-06-14T13:15:29;666.00;1356.80
56123;DHT22;42426;46.104;19.656;2023-06-14T13:17:55;665.90;1331.20
56123;DHT22;42426;46.104;19.656;2023-06-14T13:20:21;665.90;1382.40
56123;DHT22;42426;46.104;19.656;2023-06-14T13:22:47;665.80;1408.00
56123;DHT22;42426;46.104;19.656;2023-06-14T13:25:13;665.90;1356.80
56123;DHT22;42426;46.104;19.656;2023-06-14T13:27:40;665.90;1331.20
56123;DHT22;42426;46.104;19.656;2023-06-14T13:30:06;665.70;1331.20
56123;DHT22;42426;46.104;19.656;2023-06-14T13:32:32;665.70;1356.80
56123;DHT22;42426;46.104;19.656;2023-06-14T13:34:58;665.70;1356.80
56123;DHT22;42426;46.104;19.656;2023-06-14T13:37:23;665.70;1356.80
56123;DHT22;42426;46.104;19.656;2023-06-14T13:39:50;665.70;1433.60
56123;DHT22;42426;46.104;19.656;2023-06-14T13:42:19;665.70;1356.80
56123;DHT22;42426;46.104;19.656;2023-06-14T13:44:45;665.90;1280.00
56123;DHT22;42426;46.104;19.656;2023-06-14T13:47:11;666.00;1356.80
56123;DHT22;42426;46.104;19.656;2023-06-14T13:49:38;666.10;1305.60
56123;DHT22;42426;46.104;19.656;2023-06-14T13:52:04;666.10;1331.20
56123;DHT22;42426;46.104;19.656;2023-06-14T13:54:32;666.20;1382.40
56123;DHT22;42426;46.104;19.656;2023-06-14T13:56:58;666.20;1228.80
56123;DHT22;42426;46.104;19.656;2023-06-14T13:59:23;666.10;1356.80
56123;DHT22;42426;46.104;19.656;2023-06-14T14:01:49;666.10;1305.60
56123;DHT22;42426;46.104;19.656;2023-06-14T14:04:15;666.10;1331.20
56123;DHT22;42426;46.104;19.656;2023-06-14T14:06:41;666.10;1305.60
56123;DHT22;42426;46.104;19.656;2023-06-14T14:09:08;666.00;1331.20
56123;DHT22;42426;46.104;19.656;2023-06-14T14:11:34;666.00;1331.20
56123;DHT22;42426;46.104;19.656;2023-06-14T14:14:00;666.00;1433.60
56123;DHT22;42426;46.104;19.656;2023-06-14T14:16:26;666.10;1408.00
56123;DHT22;42426;46.104;19.656;2023-06-14T14:18:52;666.10;1305.60
56123;DHT22;42426;46.104;19.656;2023-06-14T14:21:18;666.20;1356.80
56123;DHT22;42426;46.104;19.656;2023-06-14T14:23:44;666.20;1305.60
56123;DHT22;42426;46.104;19.656;2023-06-14T14:26:11;666.40;1254.40
56123;DHT22;42426;46.104;19.656;2023-06-14T14:28:36;666.50;1305.60
56123;DHT22;42426;46.104;19.656;2023-06-14T14:31:02;691.20;1280.00
56123;DHT22;42426;46.104;19.656;2023-06-14T14:33:28;691.40;1280.00
56123;DHT22;42426;46.104;19.656;2023-06-14T14:35:54;691.50;1228.80
56123;DHT22;42426;46.104;19.656;2023-06-14T14:38:20;691.60;1280.00
56123;DHT22;42426;46.104;19.656;2023-06-14T14:40:47;691.60;1305.60
56123;DHT22;42426;46.104;19.656;2023-06-14T14:43:12;691.70;1280.00
56123;DHT22;42426;46.104;19.656;2023-06-14T14:45:38;691.60;1305.60
56123;DHT22;42426;46.104;19.656;2023-06-14T14:48:05;691.50;1356.80
56123;DHT22;42426;46.104;19.656;2023-06-14T14:50:31;691.30;1356.80
56123;DHT22;42426;46.104;19.656;2023-06-14T14:52:56;691.30;1152.00
56123;DHT22;42426;46.104;19.656;2023-06-14T14:55:22;691.30;1203.20
56123;DHT22;42426;46.104;19.656;2023-06-14T14:57:48;691.50;1305.60
56123;DHT22;42426;46.104;19.656;2023-06-14T15:00:14;691.60;1280.00
56123;DHT22;42426;46.104;19.656;2023-06-14T15:02:41;691.90;1228.80
56123;DHT22;42426;46.104;19.656;2023-06-14T15:05:07;692.00;1228.80
56123;DHT22;42426;46.104;19.656;2023-06-14T15:07:33;692.00;1280.00
56123;DHT22;42426;46.104;19.656;2023-06-14T15:09:59;716.80;1254.40
56123;DHT22;42426;46.104;19.656;2023-06-14T15:12:25;716.80;1305.60
56123;DHT22;42426;46.104;19.656;2023-06-14T15:14:52;717.20;1280.00
56123;DHT22;42426;46.104;19.656;2023-06-14T15:19:45;717.70;1203.20
56123;DHT22;42426;46.104;19.656;2023-06-14T15:22:11;742.90;1203.20
56123;DHT22;42426;46.104;19.656;2023-06-14T15:24:37;742.70;1177.60
56123;DHT22;42426;46.104;19.656;2023-06-14T15:27:03;743.00;1203.20
56123;DHT22;42426;46.104;19.656;2023-06-14T15:29:28;743.20;1152.00
56123;DHT22;42426;46.104;19.656;2023-06-14T15:31:54;768.20;1126.40
56123;DHT22;42426;46.104;19.656;2023-06-14T15:34:20;768.50;1100.80
56123;DHT22;42426;46.104;19.656;2023-06-14T15:46:31;844.80;972.80
56123;DHT22;42426;46.104;19.656;2023-06-14T15:51:22;845.40;972.80
56123;DHT22;42426;46.104;19.656;2023-06-14T15:53:48;845.50;972.80
56123;DHT22;42426;46.104;19.656;2023-06-14T15:56:14;845.70;972.80
56123;DHT22;42426;46.104;19.656;2023-06-14T15:58:43;870.50;896.00
56123;DHT22;42426;46.104;19.656;2023-06-14T16:01:08;870.70;896.00
56123;DHT22;42426;46.104;19.656;2023-06-14T16:03:34;870.50;870.40
56123;DHT22;42426;46.104;19.656;2023-06-14T16:06:00;870.50;870.40
56123;DHT22;42426;46.104;19.656;2023-06-14T16:08:26;870.70;896.00
56123;DHT22;42426;46.104;19.656;2023-06-14T16:10:52;870.50;844.80
56123;DHT22;42426;46.104;19.656;2023-06-14T16:13:18;845.70;870.40
56123;DHT22;42426;46.104;19.656;2023-06-14T16:15:44;845.70;870.40
56123;DHT22;42426;46.104;19.656;2023-06-14T16:18:09;845.70;896.00
56123;DHT22;42426;46.104;19.656;2023-06-14T16:20:35;845.70;896.00
56123;DHT22;42426;46.104;19.656;2023-06-14T16:23:01;845.60;896.00
56123;DHT22;42426;46.104;19.656;2023-06-14T16:25:27;845.30;870.40
56123;DHT22;42426;46.104;19.656;2023-06-14T16:27:54;845.10;870.40
56123;DHT22;42426;46.104;19.656;2023-06-14T16:30:21;820.10;870.40
56123;DHT22;42426;46.104;19.656;2023-06-14T16:32:47;819.40;921.60
56123;DHT22;42426;46.104;19.656;2023-06-14T16:35:13;793.80;972.80
56123;DHT22;42426;46.104;19.656;2023-06-14T16:44:58;742.50;998.40
56123;DHT22;42426;46.104;19.656;2023-06-14T17:01:11;692.00;1049.60
56123;DHT22;42426;46.104;19.656;2023-06-14T17:06:59;691.50;1075.20
56123;DHT22;42426;46.104;19.656;2023-06-14T17:16:28;666.40;1126.40
56123;DHT22;42426;46.104;19.656;2023-06-14T17:22:16;666.10;1177.60
56123;DHT22;42426;46.104;19.656;2023-06-14T17:28:04;665.90;1177.60
56123;DHT22;42426;46.104;19.656;2023-06-14T18:52:40;588.90;1510.40
56123;DHT22;42426;46.104;19.656;2023-06-14T18:55:06;588.80;1510.40
56123;DHT22;42426;46.104;19.656;2023-06-14T18:57:33;588.80;1510.40
56123;DHT22;42426;46.104;19.656;2023-06-14T18:59:59;564.10;1510.40
56123;DHT22;42426;46.104;19.656;2023-06-14T19:02:25;564.10;1536.00
56123;DHT22;42426;46.104;19.656;2023-06-14T19:04:51;564.00;1536.00
56123;DHT22;42426;46.104;19.656;2023-06-14T19:07:16;564.10;1561.60
56123;DHT22;42426;46.104;19.656;2023-06-14T19:09:42;563.90;1561.60
56123;DHT22;42426;46.104;19.656;2023-06-14T19:12:08;563.90;1561.60
56123;DHT22;42426;46.104;19.656;2023-06-14T19:14:33;563.80;1587.20
56123;DHT22;42426;46.104;19.656;2023-06-14T19:16:59;563.70;1612.80
56123;DHT22;42426;46.104;19.656;2023-06-14T19:19:25;563.70;1612.80
56123;DHT22;42426;46.104;19.656;2023-06-14T19:21:51;563.60;1612.80
56123;DHT22;42426;46.104;19.656;2023-06-14T19:24:17;563.60;1612.80
56123;DHT22;42426;46.104;19.656;2023-06-14T19:26:44;563.50;1638.40
56123;DHT22;42426;46.104;19.656;2023-06-14T19:29:10;563.50;1664.00
56123;DHT22;42426;46.104;19.656;2023-06-14T19:31:36;563.50;1664.00
56123;DHT22;42426;46.104;19.656;2023-06-14T19:34:02;563.50;1664.00
56123;DHT22;42426;46.104;19.656;2023-06-14T19:36:28;563.40;1664.00
56123;DHT22;42426;46.104;19.656;2023-06-14T19:38:53;563.40;1664.00
56123;DHT22;42426;46.104;19.656;2023-06-14T19:41:19;563.40;1689.60
56123;DHT22;42426;46.104;19.656;2023-06-14T19:43:45;563.30;1689.60
56123;DHT22;42426;46.104;19.656;2023-06-14T19:46:12;563.20;1689.60
56123;DHT22;42426;46.104;19.656;2023-06-14T19:48:38;563.30;1715.20
56123;DHT22;42426;46.104;19.656;2023-06-14T19:53:31;563.40;1664.00
56123;DHT22;42426;46.104;19.656;2023-06-14T19:55:57;538.50;1638.40
56123;DHT22;42426;46.104;19.656;2023-06-14T19:58:24;538.50;1664.00
56123;DHT22;42426;46.104;19.656;2023-06-14T20:00:50;538.40;1664.00
56123;DHT22;42426;46.104;19.656;2023-06-14T20:03:15;538.50;1664.00
56123;DHT22;42426;46.104;19.656;2023-06-14T20:05:41;538.40;1689.60
56123;DHT22;42426;46.104;19.656;2023-06-14T20:08:07;538.30;1689.60